sensor_id;sensor_type;location;lat;lon;timestamp;P1;durP1;ratioP1;P2;durP2;ratioP2
74487;SDS011;63019;51.080;13.642;2023-03-01T00:00:34;35.90;;;14.47;;
74487;SDS011;63019;51.080;13.642;2023-03-01T00:01:36;31.88;;;13.85;;
74487;SDS011;63019;51.080;13.642;2023-03-01T00:02:38;37.92;;;14.32;;
74487;SDS011;63019;51.080;13.642;2023-03-01T00:03:39;30.27;;;13.52;;
74487;SDS011;63019;51.080;13.642;2023-03-01T00:04:41;33.05;;;14.02;;
74487;SDS011;63019;51.080;13.642;2023-03-01T00:05:46;31.40;;;12.90;;
74487;SDS011;63019;51.080;13.642;2023-03-01T00:06:48;34.10;;;13.85;;
74487;SDS011;63019;51.080;13.642;2023-03-01T00:07:52;32.60;;;13.45;;
74487;SDS011;63019;51.080;13.642;2023-03-01T00:08:54;36.63;;;13.77;;
74487;SDS011;63019;51.080;13.642;2023-03-01T00:09:56;34.45;;;14.45;;
74487;SDS011;63019;51.080;13.642;2023-03-01T00:12:07;34.50;;;14.18;;
74487;SDS011;63019;51.080;13.642;2023-03-01T00:13:09;30.70;;;13.98;;
74487;SDS011;63019;51.080;13.642;2023-03-01T00:14:11;35.13;;;13.70;;
74487;SDS011;63019;51.080;13.642;2023-03-01T00:15:13;38.15;;;14.00;;
74487;SDS011;63019;51.080;13.642;2023-03-01T00:16:21;32.72;;;13.60;;
74487;SDS011;63019;51.080;13.642;2023-03-01T00:17:26;36.05;;;14.35;;
74487;SDS011;63019;51.080;13.642;2023-03-01T00:18:28;37.03;;;13.65;;
74487;SDS011;63019;51.080;13.642;2023-03-01T00:19:30;36.08;;;13.25;;
74487;SDS011;63019;51.080;13.642;2023-03-01T00:20:33;30.75;;;13.77;;
74487;SDS011;63019;51.080;13.642;2023-03-01T00:21:35;34.67;;;13.13;;
74487;SDS011;63019;51.080;13.642;2023-03-01T00:22:37;36.28;;;14.02;;
74487;SDS011;63019;51.080;13.642;2023-03-01T00:23:39;36.47;;;13.85;;
74487;SDS011;63019;51.080;13.642;2023-03-01T00:24:41;32.08;;;13.57;;
74487;SDS011;63019;51.080;13.642;2023-03-01T00:25:43;33.00;;;13.52;;
74487;SDS011;63019;51.080;13.642;2023-03-01T00:26:45;30.83;;;12.73;;
74487;SDS011;63019;51.080;13.642;2023-03-01T00:27:47;38.05;;;13.32;;
74487;SDS011;63019;51.080;13.642;2023-03-01T00:28:50;33.70;;;13.00;;
74487;SDS011;63019;51.080;13.642;2023-03-01T00:29:52;36.55;;;14.30;;
74487;SDS011;63019;51.080;13.642;2023-03-01T00:30:54;39.33;;;13.20;;
74487;SDS011;63019;51.080;13.642;2023-03-01T00:31:56;34.37;;;14.63;;
74487;SDS011;63019;51.080;13.642;2023-03-01T00:32:58;32.17;;;13.70;;
74487;SDS011;63019;51.080;13.642;2023-03-01T00:34:01;35.63;;;14.27;;
74487;SDS011;63019;51.080;13.642;2023-03-01T00:35:04;35.40;;;13.77;;
74487;SDS011;63019;51.080;13.642;2023-03-01T00:36:07;30.95;;;13.77;;
74487;SDS011;63019;51.080;13.642;2023-03-01T00:37:09;38.33;;;14.13;;
74487;SDS011;63019;51.080;13.642;2023-03-01T00:38:11;34.17;;;13.60;;
74487;SDS011;63019;51.080;13.642;2023-03-01T00:39:14;36.42;;;13.80;;
74487;SDS011;63019;51.080;13.642;2023-03-01T00:40:16;32.08;;;13.80;;
74487;SDS011;63019;51.080;13.642;2023-03-01T00:41:19;33.13;;;13.80;;
74487;SDS011;63019;51.080;13.642;2023-03-01T00:42:21;32.07;;;13.47;;
74487;SDS011;63019;51.080;13.642;2023-03-01T00:43:23;29.42;;;12.82;;
74487;SDS011;63019;51.080;13.642;2023-03-01T00:44:25;31.30;;;13.38;;
74487;SDS011;63019;51.080;13.642;2023-03-01T00:45:27;29.52;;;13.15;;
74487;SDS011;63019;51.080;13.642;2023-03-01T00:46:29;30.33;;;13.57;;
74487;SDS011;63019;51.080;13.642;2023-03-01T00:47:32;38.50;;;13.88;;
74487;SDS011;63019;51.080;13.642;2023-03-01T00:48:34;29.83;;;13.60;;
74487;SDS011;63019;51.080;13.642;2023-03-01T00:49:36;32.80;;;12.68;;
74487;SDS011;63019;51.080;13.642;2023-03-01T00:50:38;30.42;;;13.10;;
74487;SDS011;63019;51.080;13.642;2023-03-01T00:51:40;32.25;;;14.05;;
74487;SDS011;63019;51.080;13.642;2023-03-01T00:52:42;31.80;;;12.83;;
74487;SDS011;63019;51.080;13.642;2023-03-01T00:53:44;31.33;;;14.10;;
74487;SDS011;63019;51.080;13.642;2023-03-01T00:54:47;36.85;;;13.32;;
74487;SDS011;63019;51.080;13.642;2023-03-01T00:55:49;36.15;;;13.70;;
74487;SDS011;63019;51.080;13.642;2023-03-01T00:56:51;36.83;;;14.73;;
74487;SDS011;63019;51.080;13.642;2023-03-01T00:57:53;31.45;;;13.30;;
74487;SDS011;63019;51.080;13.642;2023-03-01T00:58:55;31.58;;;13.40;;
74487;SDS011;63019;51.080;13.642;2023-03-01T00:59:57;32.58;;;13.60;;
74487;SDS011;63019;51.080;13.642;2023-03-01T01:00:58;37.53;;;13.30;;
74487;SDS011;63019;51.080;13.642;2023-03-01T01:02:00;31.63;;;13.48;;
74487;SDS011;63019;51.080;13.642;2023-03-01T01:03:02;32.50;;;13.83;;
74487;SDS011;63019;51.080;13.642;2023-03-01T01:04:05;26.98;;;13.07;;
74487;SDS011;63019;51.080;13.642;2023-03-01T01:05:09;34.22;;;13.13;;
74487;SDS011;63019;51.080;13.642;2023-03-01T01:06:30;31.55;;;13.25;;
74487;SDS011;63019;51.080;13.642;2023-03-01T01:07:37;31.65;;;14.68;;
74487;SDS011;63019;51.080;13.642;2023-03-01T01:08:39;40.42;;;14.40;;
74487;SDS011;63019;51.080;13.642;2023-03-01T01:09:41;37.47;;;14.02;;
74487;SDS011;63019;51.080;13.642;2023-03-01T01:10:43;31.60;;;14.20;;
74487;SDS011;63019;51.080;13.642;2023-03-01T01:11:46;35.40;;;14.32;;
74487;SDS011;63019;51.080;13.642;2023-03-01T01:12:50;32.47;;;13.82;;
74487;SDS011;63019;51.080;13.642;2023-03-01T01:13:52;35.50;;;15.17;;
74487;SDS011;63019;51.080;13.642;2023-03-01T01:14:54;36.80;;;15.40;;
74487;SDS011;63019;51.080;13.642;2023-03-01T01:16:00;37.38;;;15.88;;
74487;SDS011;63019;51.080;13.642;2023-03-01T01:17:02;34.53;;;15.90;;
74487;SDS011;63019;51.080;13.642;2023-03-01T01:18:04;37.70;;;16.27;;
74487;SDS011;63019;51.080;13.642;2023-03-01T01:19:07;38.13;;;16.95;;
74487;SDS011;63019;51.080;13.642;2023-03-01T01:20:09;35.83;;;16.17;;
74487;SDS011;63019;51.080;13.642;2023-03-01T01:21:12;42.90;;;16.98;;
74487;SDS011;63019;51.080;13.642;2023-03-01T01:22:16;39.35;;;17.10;;
74487;SDS011;63019;51.080;13.642;2023-03-01T01:23:18;41.38;;;18.00;;
74487;SDS011;63019;51.080;13.642;2023-03-01T01:24:20;38.07;;;17.03;;
74487;SDS011;63019;51.080;13.642;2023-03-01T01:25:21;39.78;;;17.77;;
74487;SDS011;63019;51.080;13.642;2023-03-01T01:26:27;41.95;;;18.23;;
74487;SDS011;63019;51.080;13.642;2023-03-01T01:27:30;40.35;;;18.55;;
74487;SDS011;63019;51.080;13.642;2023-03-01T01:28:32;44.22;;;19.58;;
74487;SDS011;63019;51.080;13.642;2023-03-01T01:29:34;44.47;;;19.02;;
74487;SDS011;63019;51.080;13.642;2023-03-01T01:30:36;47.45;;;19.15;;
74487;SDS011;63019;51.080;13.642;2023-03-01T01:31:39;46.53;;;19.83;;
74487;SDS011;63019;51.080;13.642;2023-03-01T01:32:41;46.15;;;18.88;;
74487;SDS011;63019;51.080;13.642;2023-03-01T01:33:43;48.42;;;19.38;;
74487;SDS011;63019;51.080;13.642;2023-03-01T01:34:45;43.47;;;18.60;;
74487;SDS011;63019;51.080;13.642;2023-03-01T01:35:47;44.25;;;18.02;;
74487;SDS011;63019;51.080;13.642;2023-03-01T01:36:50;47.97;;;18.90;;
74487;SDS011;63019;51.080;13.642;2023-03-01T01:37:55;45.95;;;18.75;;
74487;SDS011;63019;51.080;13.642;2023-03-01T01:38:56;43.72;;;18.48;;
74487;SDS011;63019;51.080;13.642;2023-03-01T01:40:01;40.67;;;18.95;;
74487;SDS011;63019;51.080;13.642;2023-03-01T01:41:07;43.55;;;18.48;;
74487;SDS011;63019;51.080;13.642;2023-03-01T01:42:14;47.90;;;18.10;;
74487;SDS011;63019;51.080;13.642;2023-03-01T01:43:18;46.83;;;18.83;;
74487;SDS011;63019;51.080;13.642;2023-03-01T01:44:42;47.78;;;18.48;;
74487;SDS011;63019;51.080;13.642;2023-03-01T01:45:47;40.23;;;17.53;;
74487;SDS011;63019;51.080;13.642;2023-03-01T01:46:52;41.80;;;17.23;;
74487;SDS011;63019;51.080;13.642;2023-03-01T01:47:59;41.00;;;16.58;;
74487;SDS011;63019;51.080;13.642;2023-03-01T01:49:07;40.42;;;16.50;;
74487;SDS011;63019;51.080;13.642;2023-03-01T01:50:18;42.22;;;17.60;;
74487;SDS011;63019;51.080;13.642;2023-03-01T01:51:23;42.30;;;17.95;;
74487;SDS011;63019;51.080;13.642;2023-03-01T01:52:31;42.15;;;17.48;;
74487;SDS011;63019;51.080;13.642;2023-03-01T01:53:37;50.42;;;18.92;;
74487;SDS011;63019;51.080;13.642;2023-03-01T01:55:24;42.35;;;19.20;;
74487;SDS011;63019;51.080;13.642;2023-03-01T01:56:11;37.70;;;16.52;;
74487;SDS011;63019;51.080;13.642;2023-03-01T01:57:16;42.43;;;18.27;;
74487;SDS011;63019;51.080;13.642;2023-03-01T01:58:23;40.47;;;16.35;;
74487;SDS011;63019;51.080;13.642;2023-03-01T01:59:28;43.63;;;17.85;;
74487;SDS011;63019;51.080;13.642;2023-03-01T02:00:32;39.13;;;17.30;;
74487;SDS011;63019;51.080;13.642;2023-03-01T02:01:34;47.50;;;19.88;;
74487;SDS011;63019;51.080;13.642;2023-03-01T02:02:36;44.80;;;19.48;;
74487;SDS011;63019;51.080;13.642;2023-03-01T02:03:39;42.30;;;18.58;;
74487;SDS011;63019;51.080;13.642;2023-03-01T02:04:46;47.00;;;18.85;;
74487;SDS011;63019;51.080;13.642;2023-03-01T02:07:00;36.47;;;17.77;;
74487;SDS011;63019;51.080;13.642;2023-03-01T02:08:06;35.03;;;16.33;;
74487;SDS011;63019;51.080;13.642;2023-03-01T02:09:12;38.72;;;17.77;;
74487;SDS011;63019;51.080;13.642;2023-03-01T02:10:16;45.85;;;19.02;;
74487;SDS011;63019;51.080;13.642;2023-03-01T02:11:18;41.88;;;18.00;;
74487;SDS011;63019;51.080;13.642;2023-03-01T02:12:21;45.78;;;18.52;;
74487;SDS011;63019;51.080;13.642;2023-03-01T02:13:25;44.80;;;17.75;;
74487;SDS011;63019;51.080;13.642;2023-03-01T02:14:28;36.72;;;16.77;;
74487;SDS011;63019;51.080;13.642;2023-03-01T02:15:34;37.67;;;16.45;;
74487;SDS011;63019;51.080;13.642;2023-03-01T02:16:37;37.28;;;16.17;;
74487;SDS011;63019;51.080;13.642;2023-03-01T02:17:39;38.33;;;16.13;;
74487;SDS011;63019;51.080;13.642;2023-03-01T02:18:42;40.20;;;15.37;;
74487;SDS011;63019;51.080;13.642;2023-03-01T02:23:27;33.08;;;14.55;;
74487;SDS011;63019;51.080;13.642;2023-03-01T02:25:53;36.70;;;15.07;;
74487;SDS011;63019;51.080;13.642;2023-03-01T02:27:15;33.45;;;13.82;;
74487;SDS011;63019;51.080;13.642;2023-03-01T02:29:27;29.40;;;12.85;;
74487;SDS011;63019;51.080;13.642;2023-03-01T02:30:30;37.87;;;14.27;;
74487;SDS011;63019;51.080;13.642;2023-03-01T02:31:33;37.17;;;14.95;;
74487;SDS011;63019;51.080;13.642;2023-03-01T02:32:44;35.05;;;14.48;;
74487;SDS011;63019;51.080;13.642;2023-03-01T02:33:47;34.55;;;12.85;;
74487;SDS011;63019;51.080;13.642;2023-03-01T02:34:52;33.30;;;14.02;;
74487;SDS011;63019;51.080;13.642;2023-03-01T02:35:58;30.45;;;13.00;;
74487;SDS011;63019;51.080;13.642;2023-03-01T02:37:13;35.15;;;13.50;;
74487;SDS011;63019;51.080;13.642;2023-03-01T02:38:21;36.80;;;14.45;;
74487;SDS011;63019;51.080;13.642;2023-03-01T02:39:27;31.65;;;13.95;;
74487;SDS011;63019;51.080;13.642;2023-03-01T02:40:32;36.88;;;13.38;;
74487;SDS011;63019;51.080;13.642;2023-03-01T02:41:36;32.60;;;13.47;;
74487;SDS011;63019;51.080;13.642;2023-03-01T02:42:40;39.22;;;15.07;;
74487;SDS011;63019;51.080;13.642;2023-03-01T02:43:53;32.78;;;12.80;;
74487;SDS011;63019;51.080;13.642;2023-03-01T02:44:54;31.60;;;13.55;;
74487;SDS011;63019;51.080;13.642;2023-03-01T02:45:57;34.55;;;14.02;;
74487;SDS011;63019;51.080;13.642;2023-03-01T02:47:03;34.30;;;13.82;;
74487;SDS011;63019;51.080;13.642;2023-03-01T02:48:05;28.08;;;13.88;;
74487;SDS011;63019;51.080;13.642;2023-03-01T02:49:21;36.30;;;14.90;;
74487;SDS011;63019;51.080;13.642;2023-03-01T02:52:49;36.47;;;14.37;;
74487;SDS011;63019;51.080;13.642;2023-03-01T02:55:29;37.17;;;13.93;;
74487;SDS011;63019;51.080;13.642;2023-03-01T02:56:31;41.50;;;15.63;;
74487;SDS011;63019;51.080;13.642;2023-03-01T02:57:34;33.53;;;16.00;;
74487;SDS011;63019;51.080;13.642;2023-03-01T02:58:40;42.25;;;17.02;;
74487;SDS011;63019;51.080;13.642;2023-03-01T02:59:46;34.67;;;15.02;;
74487;SDS011;63019;51.080;13.642;2023-03-01T03:00:49;32.17;;;14.00;;
74487;SDS011;63019;51.080;13.642;2023-03-01T03:01:51;36.15;;;15.38;;
74487;SDS011;63019;51.080;13.642;2023-03-01T03:02:53;36.67;;;14.10;;
74487;SDS011;63019;51.080;13.642;2023-03-01T03:03:59;33.87;;;14.10;;
74487;SDS011;63019;51.080;13.642;2023-03-01T03:05:02;29.73;;;13.27;;
74487;SDS011;63019;51.080;13.642;2023-03-01T03:06:09;32.88;;;13.55;;
74487;SDS011;63019;51.080;13.642;2023-03-01T03:07:11;29.50;;;13.07;;
74487;SDS011;63019;51.080;13.642;2023-03-01T03:08:13;30.23;;;13.35;;
74487;SDS011;63019;51.080;13.642;2023-03-01T03:09:17;33.53;;;13.85;;
74487;SDS011;63019;51.080;13.642;2023-03-01T03:10:23;33.60;;;13.15;;
74487;SDS011;63019;51.080;13.642;2023-03-01T03:11:26;30.42;;;14.18;;
74487;SDS011;63019;51.080;13.642;2023-03-01T03:12:28;33.33;;;14.13;;
74487;SDS011;63019;51.080;13.642;2023-03-01T03:13:30;33.05;;;13.57;;
74487;SDS011;63019;51.080;13.642;2023-03-01T03:14:31;30.80;;;13.73;;
74487;SDS011;63019;51.080;13.642;2023-03-01T03:15:36;35.83;;;14.27;;
74487;SDS011;63019;51.080;13.642;2023-03-01T03:16:43;34.33;;;14.23;;
74487;SDS011;63019;51.080;13.642;2023-03-01T03:17:47;40.20;;;15.43;;
74487;SDS011;63019;51.080;13.642;2023-03-01T03:18:50;31.92;;;14.40;;
74487;SDS011;63019;51.080;13.642;2023-03-01T03:19:52;31.63;;;14.60;;
74487;SDS011;63019;51.080;13.642;2023-03-01T03:20:54;36.50;;;15.13;;
74487;SDS011;63019;51.080;13.642;2023-03-01T03:21:55;33.67;;;14.30;;
74487;SDS011;63019;51.080;13.642;2023-03-01T03:22:58;34.55;;;14.70;;
74487;SDS011;63019;51.080;13.642;2023-03-01T03:23:59;34.15;;;15.32;;
74487;SDS011;63019;51.080;13.642;2023-03-01T03:25:02;37.23;;;14.03;;
74487;SDS011;63019;51.080;13.642;2023-03-01T03:26:04;38.20;;;15.75;;
74487;SDS011;63019;51.080;13.642;2023-03-01T03:27:07;36.83;;;14.73;;
74487;SDS011;63019;51.080;13.642;2023-03-01T03:28:09;39.83;;;15.50;;
74487;SDS011;63019;51.080;13.642;2023-03-01T03:29:11;37.58;;;16.15;;
74487;SDS011;63019;51.080;13.642;2023-03-01T03:30:14;37.78;;;15.27;;
74487;SDS011;63019;51.080;13.642;2023-03-01T03:31:18;36.03;;;16.20;;
74487;SDS011;63019;51.080;13.642;2023-03-01T03:32:20;42.15;;;16.10;;
74487;SDS011;63019;51.080;13.642;2023-03-01T03:33:22;41.30;;;15.90;;
74487;SDS011;63019;51.080;13.642;2023-03-01T03:34:24;37.55;;;15.40;;
74487;SDS011;63019;51.080;13.642;2023-03-01T03:35:28;38.90;;;15.60;;
74487;SDS011;63019;51.080;13.642;2023-03-01T03:36:31;39.13;;;15.50;;
74487;SDS011;63019;51.080;13.642;2023-03-01T03:37:33;41.55;;;14.77;;
74487;SDS011;63019;51.080;13.642;2023-03-01T03:38:53;29.88;;;13.20;;
74487;SDS011;63019;51.080;13.642;2023-03-01T03:39:55;34.75;;;14.60;;
74487;SDS011;63019;51.080;13.642;2023-03-01T03:41:04;34.70;;;14.30;;
74487;SDS011;63019;51.080;13.642;2023-03-01T03:42:08;34.53;;;14.07;;
74487;SDS011;63019;51.080;13.642;2023-03-01T03:43:15;28.08;;;12.95;;
74487;SDS011;63019;51.080;13.642;2023-03-01T03:44:19;33.40;;;13.80;;
74487;SDS011;63019;51.080;13.642;2023-03-01T03:45:22;28.88;;;12.90;;
74487;SDS011;63019;51.080;13.642;2023-03-01T03:46:24;31.07;;;12.27;;
74487;SDS011;63019;51.080;13.642;2023-03-01T03:47:26;35.17;;;14.02;;
74487;SDS011;63019;51.080;13.642;2023-03-01T03:48:28;29.05;;;12.48;;
74487;SDS011;63019;51.080;13.642;2023-03-01T03:49:29;27.08;;;12.70;;
74487;SDS011;63019;51.080;13.642;2023-03-01T03:50:31;31.95;;;13.02;;
74487;SDS011;63019;51.080;13.642;2023-03-01T03:51:34;33.75;;;12.95;;
74487;SDS011;63019;51.080;13.642;2023-03-01T03:52:35;30.58;;;12.45;;
74487;SDS011;63019;51.080;13.642;2023-03-01T03:53:37;30.45;;;12.77;;
74487;SDS011;63019;51.080;13.642;2023-03-01T03:54:40;32.38;;;12.35;;
74487;SDS011;63019;51.080;13.642;2023-03-01T03:55:42;30.60;;;12.45;;
74487;SDS011;63019;51.080;13.642;2023-03-01T03:56:45;27.23;;;11.10;;
74487;SDS011;63019;51.080;13.642;2023-03-01T03:57:47;30.77;;;12.43;;
74487;SDS011;63019;51.080;13.642;2023-03-01T03:58:52;28.08;;;13.02;;
74487;SDS011;63019;51.080;13.642;2023-03-01T03:59:54;31.98;;;13.55;;
74487;SDS011;63019;51.080;13.642;2023-03-01T04:00:56;32.45;;;13.60;;
74487;SDS011;63019;51.080;13.642;2023-03-01T04:01:58;31.98;;;12.50;;
74487;SDS011;63019;51.080;13.642;2023-03-01T04:03:00;30.30;;;12.75;;
74487;SDS011;63019;51.080;13.642;2023-03-01T04:04:02;29.20;;;12.80;;
74487;SDS011;63019;51.080;13.642;2023-03-01T04:05:06;33.40;;;13.82;;
74487;SDS011;63019;51.080;13.642;2023-03-01T04:06:09;33.20;;;14.05;;
74487;SDS011;63019;51.080;13.642;2023-03-01T04:07:10;31.50;;;13.53;;
74487;SDS011;63019;51.080;13.642;2023-03-01T04:08:12;33.58;;;13.23;;
74487;SDS011;63019;51.080;13.642;2023-03-01T04:09:14;37.05;;;14.38;;
74487;SDS011;63019;51.080;13.642;2023-03-01T04:10:17;36.03;;;15.27;;
74487;SDS011;63019;51.080;13.642;2023-03-01T04:11:19;35.38;;;15.52;;
74487;SDS011;63019;51.080;13.642;2023-03-01T04:12:27;34.22;;;15.07;;
74487;SDS011;63019;51.080;13.642;2023-03-01T04:13:29;38.72;;;16.15;;
74487;SDS011;63019;51.080;13.642;2023-03-01T04:14:31;42.22;;;16.17;;
74487;SDS011;63019;51.080;13.642;2023-03-01T04:15:32;37.40;;;16.08;;
74487;SDS011;63019;51.080;13.642;2023-03-01T04:16:35;40.00;;;15.18;;
74487;SDS011;63019;51.080;13.642;2023-03-01T04:17:36;39.27;;;15.13;;
74487;SDS011;63019;51.080;13.642;2023-03-01T04:18:38;36.75;;;16.00;;
74487;SDS011;63019;51.080;13.642;2023-03-01T04:19:40;38.88;;;16.30;;
74487;SDS011;63019;51.080;13.642;2023-03-01T04:20:45;35.65;;;15.45;;
74487;SDS011;63019;51.080;13.642;2023-03-01T04:21:47;35.97;;;14.98;;
74487;SDS011;63019;51.080;13.642;2023-03-01T04:22:49;33.33;;;14.73;;
74487;SDS011;63019;51.080;13.642;2023-03-01T04:23:58;34.10;;;14.63;;
74487;SDS011;63019;51.080;13.642;2023-03-01T04:25:00;40.35;;;15.55;;
74487;SDS011;63019;51.080;13.642;2023-03-01T04:26:06;29.48;;;14.30;;
74487;SDS011;63019;51.080;13.642;2023-03-01T04:27:08;35.72;;;14.70;;
74487;SDS011;63019;51.080;13.642;2023-03-01T04:28:11;36.50;;;16.00;;
74487;SDS011;63019;51.080;13.642;2023-03-01T04:29:13;37.50;;;14.80;;
74487;SDS011;63019;51.080;13.642;2023-03-01T04:30:15;31.30;;;13.93;;
74487;SDS011;63019;51.080;13.642;2023-03-01T04:31:17;33.63;;;15.10;;
74487;SDS011;63019;51.080;13.642;2023-03-01T04:32:22;32.08;;;14.25;;
74487;SDS011;63019;51.080;13.642;2023-03-01T04:33:24;40.90;;;14.75;;
74487;SDS011;63019;51.080;13.642;2023-03-01T04:34:26;34.45;;;15.00;;
74487;SDS011;63019;51.080;13.642;2023-03-01T04:35:28;31.10;;;14.40;;
74487;SDS011;63019;51.080;13.642;2023-03-01T04:36:31;37.55;;;15.50;;
74487;SDS011;63019;51.080;13.642;2023-03-01T04:37:33;37.65;;;15.07;;
74487;SDS011;63019;51.080;13.642;2023-03-01T04:38:36;36.73;;;15.00;;
74487;SDS011;63019;51.080;13.642;2023-03-01T04:39:39;37.30;;;14.98;;
74487;SDS011;63019;51.080;13.642;2023-03-01T04:40:46;34.95;;;14.20;;
74487;SDS011;63019;51.080;13.642;2023-03-01T04:41:48;36.35;;;14.75;;
74487;SDS011;63019;51.080;13.642;2023-03-01T04:42:50;33.95;;;13.73;;
74487;SDS011;63019;51.080;13.642;2023-03-01T04:43:52;32.17;;;13.68;;
74487;SDS011;63019;51.080;13.642;2023-03-01T04:44:54;38.78;;;14.65;;
74487;SDS011;63019;51.080;13.642;2023-03-01T04:45:59;34.08;;;13.75;;
74487;SDS011;63019;51.080;13.642;2023-03-01T04:47:04;35.65;;;13.13;;
74487;SDS011;63019;51.080;13.642;2023-03-01T04:48:06;36.60;;;13.70;;
74487;SDS011;63019;51.080;13.642;2023-03-01T04:49:08;30.77;;;13.23;;
74487;SDS011;63019;51.080;13.642;2023-03-01T04:50:10;33.20;;;14.13;;
74487;SDS011;63019;51.080;13.642;2023-03-01T04:51:14;30.17;;;13.93;;
74487;SDS011;63019;51.080;13.642;2023-03-01T04:52:17;31.80;;;13.50;;
74487;SDS011;63019;51.080;13.642;2023-03-01T04:53:19;29.08;;;13.27;;
74487;SDS011;63019;51.080;13.642;2023-03-01T04:54:20;30.95;;;13.98;;
74487;SDS011;63019;51.080;13.642;2023-03-01T04:55:22;31.13;;;13.77;;
74487;SDS011;63019;51.080;13.642;2023-03-01T04:56:26;33.30;;;13.95;;
74487;SDS011;63019;51.080;13.642;2023-03-01T04:57:29;34.47;;;14.23;;
74487;SDS011;63019;51.080;13.642;2023-03-01T04:58:31;36.05;;;14.57;;
74487;SDS011;63019;51.080;13.642;2023-03-01T04:59:33;34.87;;;13.50;;
74487;SDS011;63019;51.080;13.642;2023-03-01T05:00:37;41.40;;;18.63;;
74487;SDS011;63019;51.080;13.642;2023-03-01T05:01:39;28.95;;;12.75;;
74487;SDS011;63019;51.080;13.642;2023-03-01T05:02:43;29.45;;;12.23;;
74487;SDS011;63019;51.080;13.642;2023-03-01T05:03:46;32.10;;;13.63;;
74487;SDS011;63019;51.080;13.642;2023-03-01T05:04:50;33.90;;;12.88;;
74487;SDS011;63019;51.080;13.642;2023-03-01T05:05:53;32.33;;;13.15;;
74487;SDS011;63019;51.080;13.642;2023-03-01T05:06:55;35.60;;;14.90;;
74487;SDS011;63019;51.080;13.642;2023-03-01T05:07:58;31.92;;;13.60;;
74487;SDS011;63019;51.080;13.642;2023-03-01T05:09:02;30.77;;;14.23;;
74487;SDS011;63019;51.080;13.642;2023-03-01T05:10:03;32.53;;;13.83;;
74487;SDS011;63019;51.080;13.642;2023-03-01T05:11:05;36.28;;;14.20;;
74487;SDS011;63019;51.080;13.642;2023-03-01T05:12:10;36.08;;;14.63;;
74487;SDS011;63019;51.080;13.642;2023-03-01T05:13:12;35.15;;;15.00;;
74487;SDS011;63019;51.080;13.642;2023-03-01T05:14:16;37.05;;;15.05;;
74487;SDS011;63019;51.080;13.642;2023-03-01T05:15:18;36.75;;;14.93;;
74487;SDS011;63019;51.080;13.642;2023-03-01T05:16:22;40.20;;;15.88;;
74487;SDS011;63019;51.080;13.642;2023-03-01T05:17:24;36.33;;;15.32;;
74487;SDS011;63019;51.080;13.642;2023-03-01T05:18:26;36.42;;;15.45;;
74487;SDS011;63019;51.080;13.642;2023-03-01T05:19:30;33.38;;;14.48;;
74487;SDS011;63019;51.080;13.642;2023-03-01T05:20:32;29.73;;;13.57;;
74487;SDS011;63019;51.080;13.642;2023-03-01T05:21:37;40.97;;;15.30;;
74487;SDS011;63019;51.080;13.642;2023-03-01T05:23:00;34.15;;;14.15;;
74487;SDS011;63019;51.080;13.642;2023-03-01T05:24:06;32.92;;;13.43;;
74487;SDS011;63019;51.080;13.642;2023-03-01T05:25:12;37.22;;;13.45;;
74487;SDS011;63019;51.080;13.642;2023-03-01T05:26:15;33.78;;;13.23;;
74487;SDS011;63019;51.080;13.642;2023-03-01T05:27:28;28.85;;;12.73;;
74487;SDS011;63019;51.080;13.642;2023-03-01T05:28:30;31.15;;;12.98;;
74487;SDS011;63019;51.080;13.642;2023-03-01T05:29:33;34.22;;;13.73;;
74487;SDS011;63019;51.080;13.642;2023-03-01T05:30:36;35.28;;;13.40;;
74487;SDS011;63019;51.080;13.642;2023-03-01T05:31:40;35.10;;;12.57;;
74487;SDS011;63019;51.080;13.642;2023-03-01T05:32:46;33.75;;;12.88;;
74487;SDS011;63019;51.080;13.642;2023-03-01T05:33:49;31.20;;;12.88;;
74487;SDS011;63019;51.080;13.642;2023-03-01T05:34:51;29.38;;;12.32;;
74487;SDS011;63019;51.080;13.642;2023-03-01T05:35:53;32.78;;;13.20;;
74487;SDS011;63019;51.080;13.642;2023-03-01T05:36:55;31.98;;;12.30;;
74487;SDS011;63019;51.080;13.642;2023-03-01T05:37:57;32.25;;;12.43;;
74487;SDS011;63019;51.080;13.642;2023-03-01T05:38:59;34.08;;;12.70;;
74487;SDS011;63019;51.080;13.642;2023-03-01T05:40:01;43.40;;;14.45;;
74487;SDS011;63019;51.080;13.642;2023-03-01T05:41:04;28.85;;;12.70;;
74487;SDS011;63019;51.080;13.642;2023-03-01T05:42:06;38.80;;;13.73;;
74487;SDS011;63019;51.080;13.642;2023-03-01T05:43:12;29.33;;;12.95;;
74487;SDS011;63019;51.080;13.642;2023-03-01T05:44:15;30.13;;;12.20;;
74487;SDS011;63019;51.080;13.642;2023-03-01T05:45:17;31.80;;;13.25;;
74487;SDS011;63019;51.080;13.642;2023-03-01T05:46:19;28.50;;;12.35;;
74487;SDS011;63019;51.080;13.642;2023-03-01T05:47:21;32.33;;;12.77;;
74487;SDS011;63019;51.080;13.642;2023-03-01T05:48:23;29.92;;;13.32;;
74487;SDS011;63019;51.080;13.642;2023-03-01T05:49:25;29.90;;;13.73;;
74487;SDS011;63019;51.080;13.642;2023-03-01T05:50:27;32.17;;;12.43;;
74487;SDS011;63019;51.080;13.642;2023-03-01T05:51:31;30.17;;;12.27;;
74487;SDS011;63019;51.080;13.642;2023-03-01T05:52:33;28.93;;;12.97;;
74487;SDS011;63019;51.080;13.642;2023-03-01T05:53:35;26.83;;;12.48;;
74487;SDS011;63019;51.080;13.642;2023-03-01T05:54:37;35.13;;;12.68;;
74487;SDS011;63019;51.080;13.642;2023-03-01T05:55:40;29.90;;;12.70;;
74487;SDS011;63019;51.080;13.642;2023-03-01T05:56:42;28.48;;;12.45;;
74487;SDS011;63019;51.080;13.642;2023-03-01T05:57:44;30.27;;;12.93;;
74487;SDS011;63019;51.080;13.642;2023-03-01T05:58:47;30.45;;;12.38;;
74487;SDS011;63019;51.080;13.642;2023-03-01T05:59:50;28.20;;;11.23;;
74487;SDS011;63019;51.080;13.642;2023-03-01T06:00:52;28.80;;;12.05;;
74487;SDS011;63019;51.080;13.642;2023-03-01T06:01:56;31.15;;;11.93;;
74487;SDS011;63019;51.080;13.642;2023-03-01T06:02:58;31.80;;;11.83;;
74487;SDS011;63019;51.080;13.642;2023-03-01T06:04:01;31.23;;;13.07;;
74487;SDS011;63019;51.080;13.642;2023-03-01T06:05:04;32.63;;;12.23;;
74487;SDS011;63019;51.080;13.642;2023-03-01T06:06:07;26.42;;;11.93;;
74487;SDS011;63019;51.080;13.642;2023-03-01T06:07:09;30.17;;;12.18;;
74487;SDS011;63019;51.080;13.642;2023-03-01T06:08:11;31.17;;;12.38;;
74487;SDS011;63019;51.080;13.642;2023-03-01T06:09:13;26.90;;;13.13;;
74487;SDS011;63019;51.080;13.642;2023-03-01T06:10:15;31.35;;;12.63;;
74487;SDS011;63019;51.080;13.642;2023-03-01T06:11:18;33.25;;;13.18;;
74487;SDS011;63019;51.080;13.642;2023-03-01T06:12:21;37.30;;;13.68;;
74487;SDS011;63019;51.080;13.642;2023-03-01T06:13:23;28.00;;;12.87;;
74487;SDS011;63019;51.080;13.642;2023-03-01T06:14:25;31.45;;;13.20;;
74487;SDS011;63019;51.080;13.642;2023-03-01T06:15:27;35.95;;;14.15;;
74487;SDS011;63019;51.080;13.642;2023-03-01T06:16:29;32.80;;;12.88;;
74487;SDS011;63019;51.080;13.642;2023-03-01T06:17:32;35.20;;;14.07;;
74487;SDS011;63019;51.080;13.642;2023-03-01T06:18:38;37.47;;;13.18;;